ZIG420 KLAX-KOAK
Flight info
| Callsign | ZIG420 |
|---|---|
| Flight time | 0h 52m |
| Altitude | 36000 |
| Route | LADYJ4 COREZ RGOOD EMZOH4 |
| Aircraft | B772/H-SDE2E3FGHIJ5LORVWXY/LB1D1 |
Departure
| Time | 2026-05-06 19:17 |
|---|---|
| Airport | Los Angeles International Airport (KLAX) |
Arrival
| Time | 2026-05-06 20:09 |
|---|---|
| Airport | San Francisco Bay Oakland International Airport (KOAK) |
| Time | Latitude | Longitude | Altitude | Speed | Heading |
|---|---|---|---|---|---|
| 2026-05-06 18:51 | 33.94614 | -118.40323 | 127 ft | 0 kts | 252° |
| 2026-05-06 19:06 | 33.94615 | -118.40318 | 127 ft | 1 kts | 240° |
| 2026-05-06 19:06 | 33.94623 | -118.40304 | 127 ft | 2 kts | 232° |
| 2026-05-06 19:07 | 33.94632 | -118.40289 | 127 ft | 2 kts | 236° |
| 2026-05-06 19:07 | 33.94638 | -118.40279 | 127 ft | 2 kts | 237° |
| 2026-05-06 19:07 | 33.94645 | -118.40261 | 128 ft | 1 kts | 285° |
| 2026-05-06 19:07 | 33.94639 | -118.40250 | 128 ft | 1 kts | 338° |
| 2026-05-06 19:08 | 33.94632 | -118.40247 | 128 ft | 1 kts | 355° |
| 2026-05-06 19:08 | 33.94630 | -118.40247 | 128 ft | 0 kts | 354° |
| 2026-05-06 19:11 | 33.94636 | -118.40248 | 128 ft | 2 kts | 352° |
| 2026-05-06 19:11 | 33.94669 | -118.40253 | 128 ft | 7 kts | 353° |
| 2026-05-06 19:11 | 33.94733 | -118.40263 | 127 ft | 11 kts | 353° |
| 2026-05-06 19:12 | 33.94799 | -118.40276 | 127 ft | 10 kts | 343° |
| 2026-05-06 19:12 | 33.94849 | -118.40294 | 127 ft | 6 kts | 353° |
| 2026-05-06 19:12 | 33.94893 | -118.40250 | 127 ft | 11 kts | 67° |
| 2026-05-06 19:12 | 33.94916 | -118.40205 | 126 ft | 0 kts | 50° |
| 2026-05-06 19:13 | 33.94917 | -118.40202 | 126 ft | 0 kts | 66° |
| 2026-05-06 19:14 | 33.94916 | -118.40190 | 126 ft | 3 kts | 95° |
| 2026-05-06 19:14 | 33.94916 | -118.40132 | 126 ft | 9 kts | 85° |
| 2026-05-06 19:14 | 33.94919 | -118.40086 | 126 ft | 6 kts | 84° |
| 2026-05-06 19:14 | 33.94923 | -118.40037 | 125 ft | 5 kts | 83° |
| 2026-05-06 19:15 | 33.94935 | -118.39967 | 125 ft | 11 kts | 65° |
| 2026-05-06 19:15 | 33.94943 | -118.39951 | 124 ft | 1 kts | 51° |
| 2026-05-06 19:15 | 33.94960 | -118.39936 | 124 ft | 5 kts | 24° |
| 2026-05-06 19:15 | 33.95012 | -118.39940 | 124 ft | 9 kts | 327° |
| 2026-05-06 19:16 | 33.95033 | -118.40023 | 125 ft | 12 kts | 266° |
| 2026-05-06 19:16 | 33.95021 | -118.40155 | 126 ft | 21 kts | 263° |
| 2026-05-06 19:16 | 33.94989 | -118.40474 | 128 ft | 74 kts | 263° |
| 2026-05-06 19:16 | 33.94884 | -118.41473 | 133 ft | 162 kts | 262° |
| 2026-05-06 19:17 | 33.94726 | -118.42875 | 936 ft | 174 kts | 261° |
| 2026-05-06 19:17 | 33.94539 | -118.44298 | 1705 ft | 179 kts | 264° |
| 2026-05-06 19:17 | 33.94429 | -118.45819 | 2326 ft | 187 kts | 267° |
| 2026-05-06 19:17 | 33.94255 | -118.47405 | 2883 ft | 199 kts | 255° |
| 2026-05-06 19:18 | 33.93714 | -118.48888 | 3613 ft | 201 kts | 251° |
| 2026-05-06 19:18 | 33.93677 | -118.50606 | 3995 ft | 216 kts | 288° |
| 2026-05-06 19:18 | 33.94206 | -118.52362 | 4522 ft | 232 kts | 288° |
| 2026-05-06 19:18 | 33.94340 | -118.54327 | 5086 ft | 249 kts | 262° |
| 2026-05-06 19:19 | 33.93893 | -118.56338 | 5760 ft | 261 kts | 258° |
| 2026-05-06 19:19 | 33.93527 | -118.58486 | 6646 ft | 260 kts | 265° |
| 2026-05-06 19:19 | 33.93373 | -118.60628 | 7482 ft | 261 kts | 274° |
| 2026-05-06 19:19 | 33.93558 | -118.62824 | 7946 ft | 275 kts | 286° |
| 2026-05-06 19:20 | 33.94222 | -118.65049 | 8023 ft | 281 kts | 303° |
| 2026-05-06 19:20 | 33.95450 | -118.66838 | 8001 ft | 278 kts | 324° |
| 2026-05-06 19:20 | 33.97166 | -118.67910 | 7897 ft | 273 kts | 347° |
| 2026-05-06 19:20 | 33.99038 | -118.68063 | 8159 ft | 261 kts | 11° |
| 2026-05-06 19:21 | 34.00865 | -118.67677 | 8347 ft | 270 kts | 9° |
| 2026-05-06 19:21 | 34.02730 | -118.67440 | 8292 ft | 269 kts | 6° |
| 2026-05-06 19:21 | 34.04602 | -118.67270 | 8176 ft | 269 kts | 4° |
| 2026-05-06 19:21 | 34.06488 | -118.67188 | 8028 ft | 268 kts | 3° |
| 2026-05-06 19:22 | 34.08351 | -118.67077 | 7958 ft | 272 kts | 6° |
| 2026-05-06 19:22 | 34.10269 | -118.66729 | 8616 ft | 280 kts | 13° |
| 2026-05-06 19:22 | 34.12117 | -118.66215 | 9769 ft | 271 kts | 14° |
| 2026-05-06 19:22 | 34.13957 | -118.65721 | 10532 ft | 278 kts | 13° |
| 2026-05-06 19:23 | 34.15897 | -118.65253 | 11006 ft | 295 kts | 13° |
| 2026-05-06 19:23 | 34.17967 | -118.64766 | 11507 ft | 310 kts | 13° |
| 2026-05-06 19:23 | 34.20148 | -118.64251 | 11994 ft | 325 kts | 12° |
| 2026-05-06 19:23 | 34.22409 | -118.63731 | 12487 ft | 340 kts | 10° |
| 2026-05-06 19:24 | 34.24808 | -118.63535 | 12928 ft | 357 kts | 1° |
| 2026-05-06 19:24 | 34.27342 | -118.63874 | 13503 ft | 370 kts | 352° |
| 2026-05-06 19:24 | 34.29872 | -118.64455 | 14223 ft | 376 kts | 352° |
| 2026-05-06 19:24 | 34.32436 | -118.65053 | 15065 ft | 378 kts | 352° |
| 2026-05-06 19:25 | 34.35033 | -118.65654 | 15897 ft | 380 kts | 352° |
| 2026-05-06 19:25 | 34.37626 | -118.66251 | 16633 ft | 385 kts | 352° |
| 2026-05-06 19:25 | 34.40282 | -118.66867 | 17343 ft | 390 kts | 351° |
| 2026-05-06 19:25 | 34.42880 | -118.67811 | 18050 ft | 398 kts | 342° |
| 2026-05-06 19:26 | 34.45373 | -118.69299 | 18777 ft | 404 kts | 334° |
| 2026-05-06 19:26 | 34.47818 | -118.71017 | 19466 ft | 409 kts | 334° |
| 2026-05-06 19:26 | 34.50337 | -118.72804 | 20177 ft | 412 kts | 333° |
| 2026-05-06 19:26 | 34.52793 | -118.74546 | 20853 ft | 417 kts | 334° |
| 2026-05-06 19:27 | 34.55291 | -118.76318 | 21507 ft | 420 kts | 334° |
| 2026-05-06 19:27 | 34.57835 | -118.78121 | 22190 ft | 423 kts | 334° |
| 2026-05-06 19:27 | 34.60387 | -118.79930 | 22842 ft | 426 kts | 334° |
| 2026-05-06 19:27 | 34.62954 | -118.81749 | 23440 ft | 430 kts | 334° |
| 2026-05-06 19:28 | 34.65525 | -118.83572 | 24066 ft | 433 kts | 334° |
| 2026-05-06 19:28 | 34.68120 | -118.85414 | 24671 ft | 436 kts | 334° |
| 2026-05-06 19:28 | 34.70755 | -118.87285 | 25233 ft | 441 kts | 334° |
| 2026-05-06 19:28 | 34.73407 | -118.89168 | 25820 ft | 444 kts | 334° |
| 2026-05-06 19:29 | 34.76079 | -118.91068 | 26349 ft | 448 kts | 334° |
| 2026-05-06 19:29 | 34.78779 | -118.92989 | 26870 ft | 452 kts | 334° |
| 2026-05-06 19:29 | 34.81482 | -118.94914 | 27388 ft | 456 kts | 334° |
| 2026-05-06 19:29 | 34.84223 | -118.96871 | 27921 ft | 459 kts | 334° |
| 2026-05-06 19:30 | 34.87008 | -118.98862 | 28445 ft | 462 kts | 334° |
| 2026-05-06 19:30 | 34.89761 | -119.00831 | 28915 ft | 466 kts | 334° |
| 2026-05-06 19:30 | 34.92556 | -119.02831 | 29363 ft | 470 kts | 334° |
| 2026-05-06 19:30 | 34.95368 | -119.04846 | 29915 ft | 471 kts | 334° |
| 2026-05-06 19:31 | 34.98202 | -119.06879 | 30594 ft | 469 kts | 334° |
| 2026-05-06 19:31 | 35.00965 | -119.08862 | 31317 ft | 465 kts | 334° |
| 2026-05-06 19:31 | 35.06630 | -119.12927 | 32625 ft | 460 kts | 335° |
| 2026-05-06 19:32 | 35.09490 | -119.14983 | 33217 ft | 459 kts | 335° |
| 2026-05-06 19:32 | 35.12235 | -119.16956 | 33797 ft | 458 kts | 335° |
| 2026-05-06 19:32 | 35.14983 | -119.18933 | 34428 ft | 456 kts | 335° |
| 2026-05-06 19:32 | 35.17709 | -119.20896 | 35075 ft | 453 kts | 335° |
| 2026-05-06 19:33 | 35.20428 | -119.22857 | 35731 ft | 450 kts | 335° |
| 2026-05-06 19:33 | 35.23129 | -119.24803 | 36121 ft | 452 kts | 335° |
| 2026-05-06 19:33 | 35.28531 | -119.28703 | 36125 ft | 450 kts | 335° |
| 2026-05-06 19:34 | 35.33917 | -119.32598 | 36123 ft | 449 kts | 335° |
| 2026-05-06 19:34 | 35.39317 | -119.36509 | 36121 ft | 450 kts | 335° |
| 2026-05-06 19:35 | 35.44679 | -119.40398 | 36117 ft | 450 kts | 335° |
| 2026-05-06 19:35 | 35.50085 | -119.44327 | 36107 ft | 450 kts | 335° |
| 2026-05-06 19:36 | 35.55437 | -119.48301 | 36102 ft | 453 kts | 330° |
| 2026-05-06 19:36 | 35.60378 | -119.53176 | 36102 ft | 457 kts | 326° |
| 2026-05-06 19:37 | 35.65230 | -119.58134 | 36103 ft | 456 kts | 326° |
| 2026-05-06 19:37 | 35.69281 | -119.62278 | 36099 ft | 456 kts | 326° |
| 2026-05-06 19:38 | 35.74970 | -119.68105 | 36093 ft | 457 kts | 325° |
| 2026-05-06 19:38 | 35.79845 | -119.73106 | 36088 ft | 455 kts | 325° |
| 2026-05-06 19:39 | 35.84720 | -119.78115 | 36090 ft | 457 kts | 325° |
| 2026-05-06 19:39 | 35.89574 | -119.83111 | 36092 ft | 457 kts | 325° |
| 2026-05-06 19:40 | 35.94314 | -119.88353 | 36095 ft | 459 kts | 321° |
| 2026-05-06 19:40 | 35.98894 | -119.93851 | 36098 ft | 458 kts | 321° |
| 2026-05-06 19:41 | 36.03458 | -119.99306 | 36106 ft | 458 kts | 321° |
| 2026-05-06 19:41 | 36.08033 | -120.04763 | 36102 ft | 458 kts | 321° |
| 2026-05-06 19:42 | 36.12617 | -120.10230 | 36115 ft | 458 kts | 321° |
| 2026-05-06 19:42 | 36.17238 | -120.15745 | 36118 ft | 458 kts | 321° |
| 2026-05-06 19:43 | 36.21787 | -120.21181 | 36116 ft | 457 kts | 321° |
| 2026-05-06 19:43 | 36.24063 | -120.23907 | 35915 ft | 451 kts | 321° |
| 2026-05-06 19:43 | 36.26301 | -120.26585 | 34959 ft | 454 kts | 321° |
| 2026-05-06 19:44 | 36.28580 | -120.29314 | 34045 ft | 455 kts | 321° |
| 2026-05-06 19:44 | 36.30855 | -120.32040 | 33251 ft | 455 kts | 320° |
| 2026-05-06 19:44 | 36.33128 | -120.34767 | 32424 ft | 457 kts | 320° |
| 2026-05-06 19:44 | 36.35403 | -120.37499 | 31561 ft | 459 kts | 320° |
| 2026-05-06 19:45 | 36.37689 | -120.40247 | 30737 ft | 460 kts | 320° |
| 2026-05-06 19:45 | 36.39950 | -120.42967 | 30273 ft | 452 kts | 320° |
| 2026-05-06 19:45 | 36.42201 | -120.45680 | 29798 ft | 446 kts | 320° |
| 2026-05-06 19:45 | 36.44405 | -120.48337 | 29282 ft | 441 kts | 320° |
| 2026-05-06 19:46 | 36.46596 | -120.50980 | 28761 ft | 437 kts | 320° |
| 2026-05-06 19:46 | 36.48758 | -120.53590 | 28283 ft | 435 kts | 320° |
| 2026-05-06 19:46 | 36.50919 | -120.56200 | 28126 ft | 422 kts | 320° |
| 2026-05-06 19:46 | 36.52980 | -120.58695 | 28122 ft | 412 kts | 320° |
| 2026-05-06 19:47 | 36.55055 | -120.61138 | 28011 ft | 415 kts | 322° |
| 2026-05-06 19:47 | 36.57217 | -120.63515 | 27302 ft | 421 kts | 322° |
| 2026-05-06 19:47 | 36.59436 | -120.65946 | 26613 ft | 421 kts | 321° |
| 2026-05-06 19:47 | 36.61613 | -120.68340 | 26044 ft | 419 kts | 321° |
| 2026-05-06 19:48 | 36.63793 | -120.70744 | 25501 ft | 415 kts | 321° |
| 2026-05-06 19:48 | 36.65908 | -120.73081 | 24975 ft | 412 kts | 321° |
| 2026-05-06 19:48 | 36.68063 | -120.75467 | 24437 ft | 408 kts | 321° |
| 2026-05-06 19:48 | 36.70147 | -120.77779 | 23915 ft | 405 kts | 321° |
| 2026-05-06 19:49 | 36.72252 | -120.80115 | 23390 ft | 402 kts | 321° |
| 2026-05-06 19:49 | 36.74314 | -120.82408 | 22883 ft | 398 kts | 321° |
| 2026-05-06 19:49 | 36.76379 | -120.84705 | 22371 ft | 395 kts | 321° |
| 2026-05-06 19:49 | 36.78419 | -120.86974 | 21883 ft | 392 kts | 321° |
| 2026-05-06 19:50 | 36.80420 | -120.89189 | 21508 ft | 386 kts | 321° |
| 2026-05-06 19:50 | 36.82410 | -120.91393 | 21141 ft | 380 kts | 321° |
| 2026-05-06 19:50 | 36.84361 | -120.93555 | 20758 ft | 374 kts | 321° |
| 2026-05-06 19:50 | 36.86298 | -120.95703 | 20384 ft | 371 kts | 322° |
| 2026-05-06 19:51 | 36.88221 | -120.97835 | 20010 ft | 371 kts | 322° |
| 2026-05-06 19:51 | 36.90157 | -120.99985 | 19623 ft | 371 kts | 322° |
| 2026-05-06 19:51 | 36.92065 | -121.02108 | 19245 ft | 368 kts | 322° |
| 2026-05-06 19:51 | 36.94007 | -121.04268 | 18866 ft | 365 kts | 322° |
| 2026-05-06 19:52 | 36.95885 | -121.06360 | 18497 ft | 363 kts | 322° |
| 2026-05-06 19:52 | 36.97752 | -121.08440 | 18130 ft | 362 kts | 322° |
| 2026-05-06 19:52 | 36.99629 | -121.10532 | 17756 ft | 360 kts | 322° |
| 2026-05-06 19:52 | 37.01497 | -121.12616 | 17406 ft | 359 kts | 322° |
| 2026-05-06 19:53 | 37.03365 | -121.14702 | 17023 ft | 359 kts | 322° |
| 2026-05-06 19:53 | 37.05222 | -121.16775 | 16543 ft | 359 kts | 322° |
| 2026-05-06 19:53 | 37.07056 | -121.18827 | 16138 ft | 355 kts | 322° |
| 2026-05-06 19:53 | 37.08890 | -121.20879 | 15769 ft | 351 kts | 322° |
| 2026-05-06 19:54 | 37.10698 | -121.22904 | 15418 ft | 349 kts | 322° |
| 2026-05-06 19:54 | 37.12515 | -121.24939 | 15074 ft | 350 kts | 322° |
| 2026-05-06 19:54 | 37.14326 | -121.26987 | 14703 ft | 348 kts | 321° |
| 2026-05-06 19:54 | 37.16096 | -121.29047 | 14263 ft | 347 kts | 321° |
| 2026-05-06 19:55 | 37.17852 | -121.31096 | 13830 ft | 345 kts | 321° |
| 2026-05-06 19:55 | 37.19587 | -121.33118 | 13426 ft | 343 kts | 321° |
| 2026-05-06 19:55 | 37.21344 | -121.35164 | 13003 ft | 341 kts | 320° |
| 2026-05-06 19:55 | 37.23055 | -121.37155 | 12592 ft | 339 kts | 320° |
| 2026-05-06 19:56 | 37.24784 | -121.39168 | 12180 ft | 337 kts | 320° |
| 2026-05-06 19:56 | 37.26504 | -121.41173 | 11766 ft | 334 kts | 320° |
| 2026-05-06 19:56 | 37.28182 | -121.43129 | 11362 ft | 332 kts | 320° |
| 2026-05-06 19:56 | 37.29862 | -121.45089 | 10960 ft | 329 kts | 320° |
| 2026-05-06 19:57 | 37.31546 | -121.47055 | 10558 ft | 326 kts | 320° |
| 2026-05-06 19:57 | 37.33192 | -121.48978 | 10166 ft | 323 kts | 320° |
| 2026-05-06 19:57 | 37.34818 | -121.50877 | 9768 ft | 321 kts | 320° |
| 2026-05-06 19:57 | 37.36431 | -121.52764 | 9541 ft | 312 kts | 320° |
| 2026-05-06 19:58 | 37.37987 | -121.54588 | 9513 ft | 297 kts | 320° |
| 2026-05-06 19:58 | 37.39476 | -121.56290 | 9503 ft | 282 kts | 321° |
| 2026-05-06 19:58 | 37.40906 | -121.57915 | 9470 ft | 270 kts | 321° |
| 2026-05-06 19:58 | 37.42274 | -121.59473 | 9218 ft | 267 kts | 321° |
| 2026-05-06 19:59 | 37.43649 | -121.61056 | 8859 ft | 268 kts | 317° |
| 2026-05-06 19:59 | 37.44809 | -121.62843 | 8719 ft | 262 kts | 310° |
| 2026-05-06 19:59 | 37.45850 | -121.64667 | 8702 ft | 250 kts | 309° |
| 2026-05-06 19:59 | 37.46859 | -121.66447 | 8687 ft | 237 kts | 309° |
| 2026-05-06 20:00 | 37.47799 | -121.68100 | 8665 ft | 226 kts | 309° |
| 2026-05-06 20:00 | 37.48701 | -121.69678 | 8485 ft | 222 kts | 309° |
| 2026-05-06 20:00 | 37.49600 | -121.71252 | 8244 ft | 222 kts | 309° |
| 2026-05-06 20:00 | 37.50495 | -121.72819 | 7991 ft | 222 kts | 309° |
| 2026-05-06 20:01 | 37.51396 | -121.74400 | 7741 ft | 221 kts | 309° |
| 2026-05-06 20:01 | 37.52288 | -121.75965 | 7499 ft | 221 kts | 309° |
| 2026-05-06 20:01 | 37.53072 | -121.77650 | 7232 ft | 224 kts | 291° |
| 2026-05-06 20:01 | 37.53406 | -121.79559 | 7003 ft | 225 kts | 282° |
| 2026-05-06 20:02 | 37.53635 | -121.81523 | 6773 ft | 225 kts | 281° |
| 2026-05-06 20:02 | 37.53855 | -121.83450 | 6547 ft | 224 kts | 282° |
| 2026-05-06 20:02 | 37.54079 | -121.85374 | 6326 ft | 223 kts | 282° |
| 2026-05-06 20:02 | 37.54306 | -121.87312 | 6104 ft | 222 kts | 282° |
| 2026-05-06 20:03 | 37.54532 | -121.89237 | 5882 ft | 221 kts | 281° |
| 2026-05-06 20:03 | 37.54754 | -121.91142 | 5662 ft | 220 kts | 281° |
| 2026-05-06 20:03 | 37.54975 | -121.93037 | 5397 ft | 220 kts | 281° |
| 2026-05-06 20:03 | 37.55201 | -121.94964 | 4944 ft | 228 kts | 281° |
| 2026-05-06 20:04 | 37.55435 | -121.96973 | 4597 ft | 232 kts | 280° |
| 2026-05-06 20:04 | 37.55677 | -121.98951 | 4387 ft | 229 kts | 286° |
| 2026-05-06 20:04 | 37.56361 | -122.00719 | 4199 ft | 222 kts | 308° |
| 2026-05-06 20:04 | 37.57309 | -122.02273 | 3909 ft | 223 kts | 309° |
| 2026-05-06 20:05 | 37.58242 | -122.03800 | 3606 ft | 222 kts | 310° |
| 2026-05-06 20:05 | 37.59219 | -122.05296 | 3298 ft | 220 kts | 311° |
| 2026-05-06 20:05 | 37.60207 | -122.06737 | 2986 ft | 213 kts | 312° |
| 2026-05-06 20:05 | 37.61162 | -122.08119 | 2711 ft | 203 kts | 312° |
| 2026-05-06 20:06 | 37.62058 | -122.09432 | 2447 ft | 192 kts | 311° |
| 2026-05-06 20:06 | 37.62888 | -122.10656 | 2202 ft | 178 kts | 311° |
| 2026-05-06 20:06 | 37.63697 | -122.11852 | 1986 ft | 178 kts | 311° |
| 2026-05-06 20:06 | 37.64482 | -122.13017 | 1737 ft | 170 kts | 311° |
| 2026-05-06 20:07 | 37.65215 | -122.14103 | 1506 ft | 150 kts | 310° |
| 2026-05-06 20:07 | 37.65863 | -122.15062 | 1320 ft | 142 kts | 310° |
| 2026-05-06 20:07 | 37.66490 | -122.15994 | 1139 ft | 138 kts | 310° |
| 2026-05-06 20:07 | 37.67106 | -122.16911 | 955 ft | 136 kts | 310° |
| 2026-05-06 20:08 | 37.67717 | -122.17818 | 779 ft | 136 kts | 309° |
| 2026-05-06 20:08 | 37.68325 | -122.18732 | 605 ft | 136 kts | 309° |
| 2026-05-06 20:08 | 37.68941 | -122.19625 | 482 ft | 136 kts | 309° |
| 2026-05-06 20:08 | 37.69549 | -122.20548 | 258 ft | 137 kts | 309° |
| 2026-05-06 20:09 | 37.70156 | -122.21445 | 64 ft | 134 kts | 309° |
| 2026-05-06 20:09 | 37.70717 | -122.22285 | 21 ft | 108 kts | 310° |
| 2026-05-06 20:09 | 37.71099 | -122.22855 | 21 ft | 44 kts | 310° |
| 2026-05-06 20:09 | 37.71276 | -122.23062 | 21 ft | 34 kts | 329° |
| 2026-05-06 20:10 | 37.71426 | -122.23142 | 20 ft | 12 kts | 345° |
| 2026-05-06 20:10 | 37.71495 | -122.23097 | 20 ft | 13 kts | 86° |
| 2026-05-06 20:10 | 37.71450 | -122.23000 | 20 ft | 14 kts | 131° |
| 2026-05-06 20:10 | 37.71379 | -122.22893 | 21 ft | 18 kts | 131° |
| 2026-05-06 20:11 | 37.71287 | -122.22756 | 21 ft | 22 kts | 129° |
| 2026-05-06 20:11 | 37.71203 | -122.22626 | 21 ft | 16 kts | 129° |
| 2026-05-06 20:11 | 37.71128 | -122.22517 | 21 ft | 14 kts | 130° |
| 2026-05-06 20:11 | 37.71133 | -122.22411 | 21 ft | 14 kts | 43° |
| 2026-05-06 20:12 | 37.71217 | -122.22322 | 21 ft | 16 kts | 41° |
| 2026-05-06 20:12 | 37.71286 | -122.22237 | 21 ft | 12 kts | 63° |
| 2026-05-06 20:12 | 37.71254 | -122.22131 | 21 ft | 15 kts | 128° |
| 2026-05-06 20:12 | 37.71175 | -122.22013 | 22 ft | 19 kts | 130° |
| 2026-05-06 20:13 | 37.71099 | -122.21897 | 22 ft | 12 kts | 125° |
| 2026-05-06 20:13 | 37.71083 | -122.21780 | 22 ft | 15 kts | 97° |
| 2026-05-06 20:13 | 37.71076 | -122.21722 | 22 ft | 0 kts | 99° |